Forrester Center, West Virginia
Current Conditions -  °F | °C
As of 9:53 AM on Sunday 23 Nov 2014 (Local Time) from KMRB Reporting Station
Clear Clear  
Wind Chill: 43°   Ceiling: Unl
Heat Index: 45°   Visibility: 10mi
Dew Point: 24°   Wind: 5mph
Humidity: 44%   Direction: 350°N
Pressure: 30.18"   Gusts: NA
Location:  39.3053°N, 77.8555°W
Report Text: KMRB 231453Z 35004KT 10SM CLR 07/M04 A3018 RMK AO2 SLP224 T00721044 58004 $
Loading
Personal Weather Stations






























Interactive Weather Map New forecast layout! Learn more

10-Day Weather Forecast

Advertisements
Track Severe Weather on mobile